Lawton Fort Sill Regional Airport
KLAW : rendu visible

Aérodrome :











RETROUVEZ-NOUS SUR...

 
LOGIN :

S'inscrire | Disclaimer

   EN    FR    IT 

 









Légende :    VFR   VFR Marginal   IFR   IFR Intensif   IFR Très Intensif
Visi : 
Plafond : 
>= 8 km
>= 3000ft
5 à 8 km
1000 à 3000 ft
1500m à 5 km
500 à 1000 ft
800 à 1500m
200 à 500 ft
< 800m
< 200 ft
Symboles :   Orages  Brouillard  Fortes neiges  Fortes précipitations  Vent > 20 kt






- Altitude de l'aérodrome : 1110 ft


KLAW - Lawton Fort Sill Regional

DERNIER METAR :
  • 271810Z 01015G21KT 4SM UP BR FEW010 BKN039 OVC060 01/M01 A3018 RMK AO2 RAE10UPB10 P0002 T00061011

METARs EXPIRÉS :
  • 271801Z 03014KT 2 1/2SM -RA BR FEW008 BKN045 OVC060 01/M01 A3019 RMK AO2 P0001 T00061011
  • 271753Z 03014G22KT 3SM RA BR FEW007 BKN036 OVC045 01/M01 A3020 RMK AO2 PK WND 07027/1736 WSHFT 1723 UPE1658B26E28B46E48RAB11E26B48 SLP237 P0005 60041 I6016 T00061011 10006 20000 58013
  • 271743Z 01016G27KT 8SM SCT007 OVC047 01/M01 A3021 RMK AO2 PK WND 07027/1736 WSHFT 1723 UPE1658B26E28RAB11E26 P0002 T00061011
  • 271700Z 01014KT 3SM BR BKN008 OVC013 01/M01 A3023 RMK AO2 UPE1658 P0000 T00061011
  • 271653Z 02014G22KT 2 1/2SM UP BR BKN010 OVC014 01/M01 A3023 RMK AO2 PK WND 36028/1612 UPB38 CIG 007V012 SLP246 P0001 I1000 T00061011
  • 271600Z 01015G22KT 7SM OVC011 01/M01 A3024 RMK AO2 CIG 008V013 P0001 T00061011
  • 271553Z 01016G23KT 5SM BR OVC009 01/M01 A3025 RMK AO2 RAE1458UPB1458E11 CIG 008V013 SLP252 P0000 T00061011
  • 271534Z 01015G21KT 5SM BR OVC011 01/M01 A3024 RMK AO2 RAE1458UPB1458E11 CIG 007V014 P0000 T00061011
  • 271514Z 36013KT 10SM BKN009 BKN015 OVC060 01/M01 A3025 RMK AO2 RAE1458UPB1458E11 P0000 T00061011

TAF KLAW
Valide du 27 à 18h jusqu'au 28 à 18h UTC


271751Z 2718/2818 02014KT 4SM -RA BR OVC010
TEMPO 2718/2720 2SM -RAPL BR OVC007
FM280100 01012G18KT 5SM -DZ OVC005
FM281000 01011KT 3SM -RA OVC007
TEMPO 2810/2814 1SM -TSRA BR OVC010CB
FIR KZFW / Amérique du Nord



MET'MAP, la Météo Aéronautique d'un coup d'oeil ! - Copyright ORBIFLY Décembre 2007 - Disclaimer

ORBIFLY MET'MAP TEAM :

Programmation & Développement : Alexandra Zaïnal
Sur une idée originale de : Baudouin d'Aumeries
Assistance à la programmation : Marc-Olivier Méhu
Soutien technique & logistique : Manuel Goepfert

Contact : metmap@orbifly.com




SOURCES & CREDITS :

   NOAA       Earth
Advisory